Loddon, United Kingdom
Current Conditions -  °F | °C
As of 3:50 PM on Saturday 25 Oct 2014 (Local Time) from EGSD Reporting Station
Few Clouds Few Clouds  
Wind Chill: 59°   Ceiling: Unl
Heat Index: 59°   Visibility: 6mi
Dew Point: 50°   Wind: 18mph
Humidity: 72%   Direction: 240°WSW
Pressure: 30.03"   Gusts: NA
Location:  52.53°N, 1.48°E
Report Text: EGSD 251450Z 24016KT 9999 FEW020 15/10 Q1017
Loading
Personal Weather Stations






























Interactive Weather Map
Tropical Storm Tracking
New forecast layout! Learn more

10-Day Weather Forecast

Advertisements
Track Severe Weather on mobile